createdAt,value
2018-06-09T00:01:50.560Z,131.23
2018-06-09T00:04:29.731Z,114.20
2018-06-09T00:07:04.237Z,118.90
2018-06-09T00:09:38.615Z,115.33
2018-06-09T00:12:12.309Z,121.33
2018-06-09T00:14:47.015Z,119.57
2018-06-09T00:17:20.895Z,127.93
2018-06-09T00:19:55.476Z,117.60
2018-06-09T00:22:29.259Z,123.87
2018-06-09T00:25:02.922Z,117.07
2018-06-09T00:27:45.863Z,128.57
2018-06-09T00:30:19.439Z,126.53
2018-06-09T00:32:54.636Z,121.83
2018-06-09T00:35:29.964Z,126.33
2018-06-09T00:38:09.587Z,128.47
2018-06-09T00:40:46.726Z,136.97
2018-06-09T00:43:21.363Z,142.33
2018-06-09T00:45:55.631Z,135.10
2018-06-09T00:48:33.588Z,137.53
2018-06-09T00:51:07.947Z,137.87
2018-06-09T00:53:42.447Z,138.50
2018-06-09T00:56:51.188Z,141.60
2018-06-09T01:02:40.698Z,136.90
2018-06-09T01:05:14.718Z,153.77
2018-06-09T01:08:25.740Z,147.90
2018-06-09T01:18:21.006Z,166.90
2018-06-09T01:20:57.337Z,157.57
2018-06-09T01:23:32.545Z,154.80
2018-06-09T01:26:05.836Z,166.07
2018-06-09T01:28:39.687Z,171.53
2018-06-09T01:31:15.396Z,159.30
2018-06-09T01:33:48.586Z,151.70
2018-06-09T01:36:23.245Z,151.90
2018-06-09T01:38:58.534Z,159.30
2018-06-09T01:41:34.512Z,160.63
2018-06-09T01:44:09.340Z,157.40
2018-06-09T01:46:43.806Z,159.80
2018-06-09T01:49:25.574Z,163.33
2018-06-09T01:51:55.763Z,167.23
2018-06-09T01:54:25.986Z,164.93
2018-06-09T01:56:55.774Z,179.50
2018-06-09T01:59:25.511Z,171.50
2018-06-09T02:01:55.713Z,173.30
2018-06-09T02:04:25.494Z,177.13
2018-06-09T02:06:55.393Z,181.23
2018-06-09T02:09:25.518Z,173.17
2018-06-09T02:11:55.639Z,175.13
2018-06-09T02:14:25.853Z,166.10
2018-06-09T02:17:00.237Z,165.83
2018-06-09T02:19:52.446Z,165.90
2018-06-09T02:22:24.723Z,165.77
2018-06-09T02:24:59.262Z,163.80
2018-06-09T02:27:34.191Z,166.80
2018-06-09T02:30:05.230Z,167.90
2018-06-09T02:32:36.039Z,147.37
2018-06-09T02:35:26.415Z,149.10
2018-06-09T02:37:58.088Z,149.23
2018-06-09T02:40:30.511Z,153.30
2018-06-09T02:43:00.563Z,153.17
2018-06-09T02:45:34.525Z,153.10
2018-06-09T02:48:04.370Z,157.87
2018-06-09T02:50:38.268Z,147.83
2018-06-09T02:53:07.609Z,158.17
2018-06-09T02:55:37.648Z,162.30
2018-06-09T02:58:07.931Z,159.60
2018-06-09T03:00:38.071Z,158.27
2018-06-09T03:03:07.796Z,157.03
2018-06-09T03:05:38.099Z,168.60
2018-06-09T03:08:07.841Z,162.63
2018-06-09T03:10:39.713Z,164.23
2018-06-09T03:13:10.664Z,178.43
2018-06-09T03:15:40.880Z,172.53
2018-06-09T03:18:11.029Z,186.80
2018-06-09T03:20:41.196Z,173.60
2018-06-09T03:23:11.439Z,169.53
2018-06-09T03:25:41.560Z,169.60
2018-06-09T03:28:11.296Z,176.30
2018-06-09T03:30:41.433Z,176.97
2018-06-09T03:33:11.928Z,181.27
2018-06-09T03:35:41.769Z,176.93
2018-06-09T03:38:11.415Z,179.70
2018-06-09T03:40:41.743Z,189.77
2018-06-09T03:43:11.629Z,205.37
2018-06-09T03:45:41.385Z,202.60
2018-06-09T03:48:11.478Z,192.13
2018-06-09T03:50:41.209Z,201.20
2018-06-09T03:53:10.900Z,201.80
2018-06-09T03:55:40.889Z,201.37
2018-06-09T03:58:12.646Z,213.83
2018-06-09T04:00:41.640Z,209.50
2018-06-09T04:03:11.735Z,212.93
2018-06-09T04:05:41.464Z,211.90
2018-06-09T04:08:11.146Z,206.53
2018-06-09T04:13:19.431Z,212.80
2018-06-09T04:15:49.483Z,211.80
2018-06-09T04:18:19.692Z,202.13
2018-06-09T04:20:49.518Z,201.80
2018-06-09T04:23:19.564Z,203.73
2018-06-09T04:25:49.980Z,197.70
2018-06-09T04:28:19.743Z,211.97
2018-06-09T04:30:49.453Z,222.87
2018-06-09T04:33:19.395Z,221.27
2018-06-09T04:35:49.165Z,225.43
2018-06-09T04:38:18.716Z,218.93
2018-06-09T04:40:48.789Z,216.83
2018-06-09T04:43:17.785Z,210.60
2018-06-09T04:45:47.376Z,224.10
2018-06-09T04:48:17.274Z,247.90
2018-06-09T04:50:46.822Z,233.23
2018-06-09T04:53:16.399Z,241.27
2018-06-09T04:55:46.297Z,231.93
2018-06-09T04:58:15.892Z,209.77
2018-06-09T05:00:46.231Z,229.90
2018-06-09T05:03:18.890Z,213.93
2018-06-09T05:05:49.321Z,224.00
2018-06-09T05:08:21.561Z,198.67
2018-06-09T05:10:52.414Z,210.20
2018-06-09T05:13:27.607Z,198.83
2018-06-09T05:15:58.317Z,203.23
2018-06-09T05:18:28.639Z,203.37
2018-06-09T05:20:58.387Z,215.73
2018-06-09T05:23:29.177Z,208.27
2018-06-09T05:25:59.958Z,192.73
2018-06-09T05:28:30.275Z,184.30
2018-06-09T05:31:00.155Z,196.97
2018-06-09T05:33:29.978Z,188.83
2018-06-09T05:36:00.162Z,181.30
2018-06-09T05:38:29.995Z,169.87
2018-06-09T05:40:59.686Z,179.60
2018-06-09T05:43:29.767Z,194.97
2018-06-09T05:45:59.020Z,195.37
2018-06-09T05:48:29.315Z,187.27
2018-06-09T05:51:00.539Z,189.57
2018-06-09T05:53:30.128Z,201.50
2018-06-09T05:55:59.777Z,191.77
2018-06-09T05:58:29.907Z,193.10
2018-06-09T06:00:59.918Z,197.87
2018-06-09T06:03:29.527Z,191.47
2018-06-09T06:05:59.552Z,201.17
2018-06-09T06:08:33.684Z,190.53
2018-06-09T06:11:03.644Z,202.43
2018-06-09T06:13:33.254Z,205.60
2018-06-09T06:16:03.819Z,193.17
2018-06-09T06:18:33.844Z,186.53
2018-06-09T06:21:03.449Z,181.57
2018-06-09T06:23:33.134Z,182.47
2018-06-09T06:26:03.214Z,187.07
2018-06-09T06:28:32.941Z,201.60
2018-06-09T06:31:03.129Z,213.00
2018-06-09T06:33:33.302Z,221.93
2018-06-09T06:36:03.191Z,212.43
2018-06-09T06:38:33.557Z,226.50
2018-06-09T06:41:03.900Z,219.20
2018-06-09T06:43:33.461Z,202.13
2018-06-09T06:46:03.154Z,221.67
2018-06-09T06:48:33.413Z,225.60
2018-06-09T06:51:03.335Z,216.83
2018-06-09T06:53:33.118Z,215.40
2018-06-09T06:56:02.806Z,199.20
2018-06-09T06:58:32.932Z,187.97
2018-06-09T07:01:02.620Z,193.23
2018-06-09T07:03:32.530Z,219.50
2018-06-09T07:06:02.043Z,199.23
2018-06-09T07:08:31.688Z,212.07
2018-06-09T07:11:01.274Z,198.53
2018-06-09T07:13:30.915Z,205.33
2018-06-09T07:16:00.555Z,204.47
2018-06-09T07:18:30.466Z,227.83
2018-06-09T07:21:00.243Z,231.40
2018-06-09T07:23:29.760Z,230.93
2018-06-09T07:25:59.763Z,235.47
2018-06-09T07:28:29.390Z,249.33
2018-06-09T07:30:59.013Z,231.50
2018-06-09T07:33:28.840Z,239.07
2018-06-09T07:35:58.504Z,223.23
2018-06-09T07:38:28.120Z,234.13
2018-06-09T07:40:57.986Z,234.57
2018-06-09T07:43:27.650Z,228.93
2018-06-09T07:45:57.306Z,221.73
2018-06-09T07:48:27.270Z,230.40
2018-06-09T07:50:56.853Z,224.37
2018-06-09T07:53:26.420Z,233.80
2018-06-09T07:55:56.310Z,215.73
2018-06-09T07:58:26.134Z,211.43
2018-06-09T08:00:56.463Z,215.67
2018-06-09T08:03:26.312Z,195.23
2018-06-09T08:05:55.885Z,200.10
2018-06-09T08:08:25.795Z,200.10
2018-06-09T08:10:55.683Z,188.00
2018-06-09T08:13:25.277Z,187.27
2018-06-09T08:15:55.020Z,193.50
2018-06-09T08:18:25.127Z,192.13
2018-06-09T08:20:54.917Z,200.63
2018-06-09T08:23:24.769Z,183.23
2018-06-09T08:25:55.819Z,203.30
2018-06-09T08:28:25.941Z,186.30
2018-06-09T08:30:55.507Z,208.63
2018-06-09T08:33:25.789Z,190.43
2018-06-09T08:35:55.343Z,191.40
2018-06-09T08:38:25.098Z,185.93
2018-06-09T08:40:55.223Z,182.27
2018-06-09T08:43:25.209Z,188.50
2018-06-09T08:45:54.938Z,190.17
2018-06-09T08:48:25.161Z,166.20
2018-06-09T08:50:55.275Z,180.10
2018-06-09T08:53:25.288Z,163.37
2018-06-09T08:55:55.446Z,161.37
2018-06-09T08:58:26.326Z,164.27
2018-06-09T09:00:55.965Z,162.57
2018-06-09T09:03:30.174Z,160.30
2018-06-09T09:05:59.822Z,159.33
2018-06-09T09:08:29.670Z,159.97
2018-06-09T09:11:01.637Z,150.10
2018-06-09T09:13:32.384Z,147.77
2018-06-09T09:16:02.430Z,134.93
2018-06-09T09:18:33.152Z,138.23
2018-06-09T09:21:04.069Z,155.17
2018-06-09T09:23:33.711Z,144.83
2018-06-09T09:26:03.299Z,149.73
2018-06-09T09:28:32.978Z,140.33
2018-06-09T09:31:02.794Z,139.80
2018-06-09T09:33:34.170Z,134.40
2018-06-09T09:36:04.144Z,134.20
2018-06-09T09:38:33.942Z,143.50
2018-06-09T09:41:08.412Z,133.27
2018-06-09T09:43:38.308Z,136.37
2018-06-09T09:46:08.492Z,141.67
2018-06-09T09:48:39.128Z,151.57
2018-06-09T09:51:09.098Z,143.50
2018-06-09T09:53:39.106Z,160.80
2018-06-09T09:56:09.047Z,144.20
2018-06-09T09:58:39.252Z,132.80
2018-06-09T10:01:09.596Z,138.93
2018-06-09T10:03:40.048Z,134.77
2018-06-09T10:06:09.881Z,147.60
2018-06-09T10:08:41.783Z,147.13
2018-06-09T10:11:13.103Z,138.13
2018-06-09T10:13:43.952Z,144.67
2018-06-09T10:16:14.113Z,150.17
2018-06-09T10:21:17.971Z,148.27
2018-06-09T10:23:48.445Z,145.03
2018-06-09T10:26:18.210Z,138.70
2018-06-09T10:28:48.246Z,138.90
2018-06-09T10:31:19.209Z,132.60
2018-06-09T10:33:48.889Z,125.80
2018-06-09T10:36:19.857Z,137.80
2018-06-09T10:38:49.469Z,140.10
2018-06-09T10:41:19.172Z,131.93
2018-06-09T10:43:49.159Z,128.17
2018-06-09T10:46:19.293Z,142.23
2018-06-09T10:48:49.073Z,130.13
2018-06-09T10:51:19.145Z,132.43
2018-06-09T10:53:48.892Z,124.97
2018-06-09T10:56:18.553Z,132.43
2018-06-09T10:58:48.547Z,122.20
2018-06-09T11:01:18.167Z,122.07
2018-06-09T11:03:48.706Z,119.80
2018-06-09T11:06:18.795Z,125.97
2018-06-09T11:08:48.564Z,129.57
2018-06-09T11:11:23.931Z,144.73
2018-06-09T11:13:54.931Z,130.73
2018-06-09T11:16:25.049Z,124.47
2018-06-09T11:18:55.264Z,122.03
2018-06-09T11:21:25.528Z,120.70
2018-06-09T11:23:59.617Z,122.07
2018-06-09T11:26:30.374Z,127.13
2018-06-09T11:29:27.414Z,120.13
2018-06-09T11:32:05.643Z,131.80
2018-06-09T11:34:37.542Z,129.90
2018-06-09T11:37:07.851Z,147.60
2018-06-09T11:39:37.970Z,138.80
2018-06-09T11:42:07.657Z,131.17
2018-06-09T11:44:37.609Z,122.60
2018-06-09T11:47:07.293Z,125.37
2018-06-09T11:49:36.977Z,123.73
2018-06-09T11:52:07.371Z,127.83
2018-06-09T11:54:37.698Z,136.03
2018-06-09T11:57:07.712Z,130.23
2018-06-09T11:59:38.947Z,117.17
2018-06-09T12:02:13.280Z,124.73
2018-06-09T12:04:44.205Z,124.77
2018-06-09T12:07:13.961Z,130.30
2018-06-09T12:09:44.656Z,130.70
2018-06-09T12:12:14.618Z,125.60
2018-06-09T12:14:44.696Z,127.10
2018-06-09T12:17:14.481Z,117.10
2018-06-09T12:19:45.094Z,131.07
2018-06-09T12:22:15.323Z,125.43
2018-06-09T12:24:45.203Z,123.63
2018-06-09T12:27:15.339Z,114.30
2018-06-09T12:29:45.694Z,113.50
2018-06-09T12:32:15.422Z,109.50
2018-06-09T12:34:46.519Z,128.67
2018-06-09T12:37:16.886Z,117.13
2018-06-09T12:39:46.933Z,110.93
2018-06-09T12:42:17.525Z,98.50
2018-06-09T12:44:47.358Z,98.63
2018-06-09T12:47:17.941Z,95.33
2018-06-09T12:50:02.064Z,97.10
2018-06-09T12:52:31.987Z,109.03
2018-06-09T12:55:02.131Z,101.53
2018-06-09T12:57:32.055Z,90.43
2018-06-09T13:00:02.938Z,94.00
2018-06-09T13:02:32.712Z,99.83
2018-06-09T13:05:02.720Z,90.60
2018-06-09T13:07:32.559Z,101.13
2018-06-09T13:10:02.820Z,96.53
2018-06-09T13:12:32.762Z,91.17
2018-06-09T13:15:02.488Z,82.20
2018-06-09T13:17:33.405Z,88.07
2018-06-09T13:20:03.132Z,81.57
2018-06-09T13:22:32.984Z,77.63
2018-06-09T13:25:04.035Z,85.20
2018-06-09T13:27:34.320Z,80.80
2018-06-09T13:30:04.114Z,86.10
2018-06-09T13:32:33.929Z,79.20
2018-06-09T13:35:03.733Z,82.60
2018-06-09T13:37:33.772Z,88.93
2018-06-09T13:40:03.897Z,75.60
2018-06-09T13:42:33.556Z,82.47
2018-06-09T13:45:05.297Z,69.17
2018-06-09T13:47:36.275Z,71.27
2018-06-09T13:50:06.114Z,77.73
2018-06-09T13:52:35.831Z,79.60
2018-06-09T13:55:05.887Z,76.33
2018-06-09T13:57:35.542Z,74.73
2018-06-09T14:00:06.603Z,76.27
2018-06-09T14:02:36.685Z,70.60
2018-06-09T14:05:07.361Z,81.43
2018-06-09T14:07:37.504Z,81.60
2018-06-09T14:10:07.500Z,81.70
2018-06-09T14:12:41.904Z,71.33
2018-06-09T14:15:11.555Z,75.90
2018-06-09T14:17:41.773Z,77.70
2018-06-09T14:20:11.512Z,70.93
2018-06-09T14:22:41.211Z,63.87
2018-06-09T14:25:11.556Z,71.20
2018-06-09T14:27:41.362Z,79.93
2018-06-09T14:30:11.269Z,73.60
2018-06-09T14:32:41.329Z,68.93
2018-06-09T14:35:11.168Z,77.87
2018-06-09T14:37:40.945Z,70.47
2018-06-09T14:40:10.895Z,66.20
2018-06-09T14:42:40.585Z,71.77
2018-06-09T14:45:10.506Z,72.00
2018-06-09T14:47:40.479Z,67.97
2018-06-09T14:50:10.555Z,62.50
2018-06-09T14:52:44.404Z,63.23
2018-06-09T14:55:14.345Z,67.63
2018-06-09T14:57:43.992Z,57.93
2018-06-09T15:00:13.591Z,51.83
2018-06-09T15:02:44.186Z,57.60
2018-06-09T15:05:13.950Z,58.70
2018-06-09T15:07:43.891Z,52.90
2018-06-09T15:10:14.158Z,53.23
2018-06-09T15:12:44.034Z,57.90
2018-06-09T15:15:13.631Z,60.60
2018-06-09T15:20:17.507Z,53.07
2018-06-09T15:22:47.175Z,46.27
2018-06-09T15:25:18.203Z,44.40
2018-06-09T15:27:56.761Z,48.87
2018-06-09T15:30:26.770Z,43.53
2018-06-09T15:32:56.581Z,45.40
2018-06-09T15:35:26.914Z,46.27
2018-06-09T15:37:56.862Z,41.43
2018-06-09T15:40:26.467Z,51.60
2018-06-09T15:42:56.481Z,40.03
2018-06-09T15:45:26.810Z,46.43
2018-06-09T15:47:56.841Z,42.40
2018-06-09T15:50:27.262Z,43.53
2018-06-09T15:52:58.212Z,42.37
2018-06-09T15:55:28.061Z,44.00
2018-06-09T15:58:01.744Z,41.20
2018-06-09T16:00:36.245Z,37.40
2018-06-09T16:03:06.707Z,42.60
2018-06-09T16:05:36.957Z,39.60
2018-06-09T16:08:08.189Z,42.37
2018-06-09T16:10:38.068Z,40.47
2018-06-09T16:13:12.487Z,38.97
2018-06-09T16:15:43.581Z,38.60
2018-06-09T16:18:14.082Z,37.87
2018-06-09T16:20:48.897Z,38.23
2018-06-09T16:23:19.024Z,48.93
2018-06-09T16:25:49.339Z,39.43
2018-06-09T16:28:27.963Z,41.30
2018-06-09T16:30:59.503Z,45.93
2018-06-09T16:33:30.144Z,44.40
2018-06-09T16:36:00.608Z,39.37
2018-06-09T16:38:33.170Z,45.43
2018-06-09T16:41:02.548Z,37.57
2018-06-09T16:43:32.136Z,46.73
2018-06-09T16:46:01.988Z,39.70
2018-06-09T16:48:31.561Z,36.47
2018-06-09T16:51:01.159Z,44.67
2018-06-09T16:53:31.062Z,33.97
2018-06-09T16:56:00.901Z,40.40
2018-06-09T16:58:30.626Z,39.03
2018-06-09T17:01:00.572Z,41.23
2018-06-09T17:03:30.139Z,39.00
2018-06-09T17:06:00.195Z,36.67
2018-06-09T17:08:33.042Z,38.00
2018-06-09T17:11:02.566Z,40.47
2018-06-09T17:13:32.083Z,36.57
2018-06-09T17:16:01.936Z,32.97
2018-06-09T17:18:31.515Z,39.03
2018-06-09T17:21:01.423Z,40.43
2018-06-09T17:23:32.645Z,36.30
2018-06-09T17:26:02.470Z,37.47
2018-06-09T17:28:32.520Z,37.50
2018-06-09T17:31:02.978Z,35.47
2018-06-09T17:33:38.517Z,34.97
2018-06-09T17:36:08.962Z,31.57
2018-06-09T17:38:38.732Z,32.10
2018-06-09T17:41:12.204Z,32.80
2018-06-09T17:43:43.010Z,33.03
2018-06-09T17:46:13.365Z,37.20
2018-06-09T17:48:44.110Z,37.00
2018-06-09T17:51:15.413Z,31.97
2018-06-09T17:53:45.226Z,34.70
2018-06-09T17:56:15.347Z,36.37
2018-06-09T17:58:45.090Z,38.23
2018-06-09T18:01:15.047Z,35.50
2018-06-09T18:03:45.077Z,36.10
2018-06-09T18:06:14.716Z,32.80
2018-06-09T18:08:44.304Z,39.53
2018-06-09T18:11:14.269Z,32.23
2018-06-09T18:13:44.075Z,34.50
2018-06-09T18:16:13.745Z,36.67
2018-06-09T18:18:43.718Z,32.27
2018-06-09T18:21:13.489Z,33.13
2018-06-09T18:23:43.293Z,37.07
2018-06-09T18:26:20.112Z,34.27
2018-06-09T18:28:49.971Z,31.97
2018-06-09T18:31:19.776Z,32.23
2018-06-09T18:33:50.001Z,36.93
2018-06-09T18:36:20.456Z,34.77
2018-06-09T18:38:50.455Z,33.83
2018-06-09T18:41:20.858Z,31.90
2018-06-09T18:43:51.512Z,34.70
2018-06-09T18:46:22.060Z,38.03
2018-06-09T18:48:53.866Z,34.83
2018-06-09T18:51:23.614Z,33.97
2018-06-09T18:53:54.234Z,34.50
2018-06-09T18:56:24.250Z,36.10
2018-06-09T18:58:54.021Z,31.53
2018-06-09T19:01:23.739Z,32.33
2018-06-09T19:03:54.613Z,36.43
2018-06-09T19:06:24.407Z,30.27
2018-06-09T19:08:54.156Z,31.73
2018-06-09T19:11:24.574Z,32.53
2018-06-09T19:13:54.547Z,32.83
2018-06-09T19:16:24.678Z,35.40
2018-06-09T19:18:56.296Z,35.10
2018-06-09T19:21:26.165Z,38.63
2018-06-09T19:23:56.264Z,31.50
2018-06-09T19:26:26.337Z,39.60
2018-06-09T19:28:56.646Z,39.50
2018-06-09T19:31:26.644Z,34.20
2018-06-09T19:33:57.014Z,42.27
2018-06-09T19:36:26.895Z,44.70
2018-06-09T19:38:56.853Z,48.67
2018-06-09T19:41:27.043Z,50.33
2018-06-09T19:43:56.694Z,37.80
2018-06-09T19:46:26.989Z,41.27
2018-06-09T19:48:57.417Z,39.90
2018-06-09T19:51:27.558Z,38.80
2018-06-09T19:53:57.337Z,36.53
2018-06-09T19:56:31.581Z,37.30
2018-06-09T19:59:01.359Z,39.50
2018-06-09T20:01:31.328Z,44.00
2018-06-09T20:04:01.119Z,48.00
2018-06-09T20:06:31.317Z,39.70
2018-06-09T20:09:03.662Z,46.40
2018-06-09T20:11:34.805Z,44.20
2018-06-09T20:14:04.846Z,47.30
2018-06-09T20:16:34.901Z,41.87
2018-06-09T20:19:04.172Z,51.20
2018-06-09T20:21:36.451Z,42.20
2018-06-09T20:24:06.664Z,41.40
2018-06-09T20:26:36.444Z,44.57
2018-06-09T20:29:06.432Z,42.67
2018-06-09T20:31:36.760Z,46.07
2018-06-09T20:35:25.900Z,46.30
2018-06-09T20:37:55.967Z,47.80
2018-06-09T20:40:25.813Z,48.23
2018-06-09T20:42:55.651Z,56.23
2018-06-09T20:45:25.452Z,46.00
2018-06-09T20:47:55.336Z,48.57
2018-06-09T20:53:00.484Z,51.30
2018-06-09T20:55:30.680Z,53.20
2018-06-09T20:58:04.588Z,55.27
2018-06-09T21:00:34.268Z,51.60
2018-06-09T21:03:04.223Z,52.33
2018-06-09T21:05:34.784Z,55.97
2018-06-09T21:08:07.015Z,61.73
2018-06-09T21:10:41.313Z,54.97
2018-06-09T21:13:12.560Z,51.93
2018-06-09T21:15:47.695Z,54.20
2018-06-09T21:18:17.719Z,54.93
2018-06-09T21:20:48.448Z,51.80
2018-06-09T21:23:18.848Z,60.17
2018-06-09T21:25:49.000Z,54.87
2018-06-09T21:28:23.865Z,55.63
2018-06-09T21:30:59.008Z,66.60
2018-06-09T21:33:45.082Z,58.73
2018-06-09T21:36:19.207Z,63.97
2018-06-09T21:41:33.605Z,65.10
2018-06-09T21:44:08.924Z,67.33
2018-06-09T21:46:43.697Z,64.90
2018-06-09T21:49:14.093Z,72.63
2018-06-09T21:51:43.922Z,59.40
2018-06-09T21:54:13.669Z,66.00
2018-06-09T21:56:43.970Z,70.77
2018-06-09T21:59:13.811Z,71.67
2018-06-09T22:01:44.756Z,73.57
2018-06-09T22:04:15.177Z,92.47
2018-06-09T22:06:44.868Z,96.90
2018-06-09T22:09:14.568Z,118.60
2018-06-09T22:11:44.650Z,102.53
2018-06-09T22:14:14.625Z,106.20
2018-06-09T22:16:48.831Z,109.37
2018-06-09T22:19:19.146Z,111.60
2018-06-09T22:21:48.952Z,135.13
2018-06-09T22:24:18.602Z,127.13
2018-06-09T22:26:53.601Z,127.03
2018-06-09T22:29:23.152Z,140.03
2018-06-09T22:31:52.886Z,141.43
2018-06-09T22:34:22.726Z,149.63
2018-06-09T22:36:55.750Z,158.60
2018-06-09T22:39:25.236Z,122.83
2018-06-09T22:41:55.047Z,120.33
2018-06-09T22:44:28.312Z,134.53
2018-06-09T22:46:59.069Z,145.80
2018-06-09T22:49:30.351Z,166.10
2018-06-09T22:51:59.878Z,175.50
2018-06-09T22:54:30.560Z,205.20
2018-06-09T22:57:00.213Z,193.97
2018-06-09T22:59:29.710Z,194.73
2018-06-09T23:01:59.652Z,175.77
2018-06-09T23:04:29.213Z,143.53
2018-06-09T23:06:58.729Z,149.33
2018-06-09T23:09:28.540Z,160.57
2018-06-09T23:11:58.083Z,158.33
2018-06-09T23:14:27.907Z,193.77
2018-06-09T23:16:57.786Z,168.37
2018-06-09T23:19:27.377Z,195.93
2018-06-09T23:21:56.935Z,203.90
2018-06-09T23:24:26.939Z,188.77
2018-06-09T23:26:56.705Z,156.77
2018-06-09T23:29:26.230Z,131.40
2018-06-09T23:31:56.163Z,136.10
2018-06-09T23:34:25.885Z,127.27
2018-06-09T23:36:55.517Z,86.30
2018-06-09T23:39:26.573Z,86.07
2018-06-09T23:41:56.173Z,64.07
2018-06-09T23:44:26.207Z,58.90
2018-06-09T23:46:56.149Z,65.93
2018-06-09T23:49:26.389Z,59.20
2018-06-09T23:51:56.146Z,60.20
2018-06-09T23:54:25.769Z,68.07
2018-06-09T23:56:54.858Z,64.03
2018-06-09T23:59:31.831Z,63.40
